Time;durP1;ratioP1;P1;durP2;ratioP2;P2;SDS_P1;SDS_P2;PMS_P1;PMS_P2;Temp;Humidity;BMP_temperature;BMP_pressure;BME280_temperature;BME280_humidity;BME280_pressure;Samples;Min_cycle;Max_cycle;Signal;HPM_P1;HPM_P2
2022/12/13 00:02:34;;;;;;;3.22;2.20;;;19.00;52.90;;;;;;6245779;28;20025;-69
2022/12/13 00:05:42;;;;;;;3.00;2.20;;;19.00;52.90;;;;;;6247095;28;20080;-69
2022/12/13 00:08:43;;;;;;;2.55;2.00;;;19.00;52.90;;;;;;6247236;28;20029;-69
2022/12/13 00:11:44;;;;;;;2.72;2.00;;;19.00;52.90;;;;;;6247043;28;20092;-69
2022/12/13 00:14:44;;;;;;;3.45;2.10;;;19.00;52.90;;;;;;6245685;28;20201;-69
2022/12/13 00:17:46;;;;;;;2.80;2.13;;;19.00;52.90;;;;;;6245694;28;20029;-69
2022/12/13 00:20:47;;;;;;;2.50;1.95;;;19.00;52.90;;;;;;6246801;28;20083;-70
2022/12/13 00:23:48;;;;;;;3.03;2.10;;;19.00;52.90;;;;;;6245364;28;20029;-69
2022/12/13 00:26:48;;;;;;;3.72;2.30;;;19.00;52.90;;;;;;6246299;28;20025;-68
2022/12/13 00:29:49;;;;;;;3.42;2.30;;;19.00;52.90;;;;;;6245271;28;20028;-69
2022/12/13 00:32:50;;;;;;;2.72;1.88;;;19.00;52.90;;;;;;6245213;28;20021;-70
2022/12/13 00:35:51;;;;;;;3.03;2.08;;;19.00;52.90;;;;;;6245109;28;20021;-69
2022/12/13 00:39:01;;;;;;;2.38;1.70;;;19.00;52.90;;;;;;6245039;28;20113;-69
2022/12/13 00:42:02;;;;;;;3.00;1.92;;;19.00;52.90;;;;;;6246389;28;20065;-70
2022/12/13 00:45:03;;;;;;;2.58;1.75;;;19.00;52.90;;;;;;6246005;28;20025;-69
2022/12/13 00:48:04;;;;;;;2.30;1.58;;;19.00;52.90;;;;;;6244623;28;20120;-70
2022/12/13 00:51:07;;;;;;;2.83;1.80;;;19.00;52.90;;;;;;6246260;28;20021;-69
2022/12/13 00:54:09;;;;;;;2.63;2.05;;;19.00;52.90;;;;;;6244604;28;20026;-70
2022/12/13 00:57:10;;;;;;;2.17;1.52;;;19.00;52.90;;;;;;6245061;28;20075;-69
2022/12/13 01:00:11;;;;;;;2.97;1.80;;;19.00;52.90;;;;;;6244942;28;20418;-71
2022/12/13 01:03:24;;;;;;;2.17;1.65;;;19.00;52.90;;;;;;6261996;28;20021;-70
2022/12/13 01:06:37;;;;;;;2.28;1.80;;;19.00;52.90;;;;;;6246284;28;20120;-71
2022/12/13 01:09:38;;;;;;;2.20;1.67;;;19.00;52.90;;;;;;6245836;28;20021;-71
2022/12/13 01:12:39;;;;;;;3.45;1.80;;;19.00;52.90;;;;;;6245892;28;20014;-70
2022/12/13 01:15:44;;;;;;;2.50;1.90;;;19.00;52.90;;;;;;6245613;28;20021;-71
2022/12/13 01:18:45;;;;;;;2.78;1.80;;;19.00;52.90;;;;;;6245552;28;20047;-71
2022/12/13 01:21:46;;;;;;;2.10;1.70;;;19.00;52.90;;;;;;6245432;28;20025;-71
2022/12/13 01:24:46;;;;;;;1.80;1.40;;;19.00;52.90;;;;;;6244288;28;20022;-70
2022/12/13 01:27:48;;;;;;;2.03;1.50;;;19.00;52.90;;;;;;6244127;28;20064;-70
2022/12/13 01:30:57;;;;;;;1.98;1.60;;;19.00;52.90;;;;;;6245256;28;20519;-70
2022/12/13 01:33:57;;;;;;;1.65;1.35;;;19.00;52.90;;;;;;6244052;28;20024;-71
2022/12/13 01:36:58;;;;;;;2.45;1.60;;;19.00;52.90;;;;;;6244080;28;20029;-70
2022/12/13 01:39:59;;;;;;;2.17;1.50;;;19.00;52.90;;;;;;6243890;28;20036;-70
2022/12/13 01:43:01;;;;;;;1.58;1.48;;;19.00;52.90;;;;;;6243799;28;20383;-71
2022/12/13 01:46:03;;;;;;;2.40;1.67;;;19.00;52.90;;;;;;6244768;28;20075;-71
2022/12/13 01:49:13;;;;;;;3.17;1.80;;;19.00;52.90;;;;;;6244756;28;20148;-70
2022/12/13 01:52:15;;;;;;;2.13;1.60;;;19.00;52.90;;;;;;6244886;28;20032;-70
2022/12/13 01:55:19;;;;;;;2.60;1.70;;;19.00;52.90;;;;;;6243217;28;20579;-71
2022/12/13 01:58:20;;;;;;;2.40;1.73;;;19.00;52.90;;;;;;6243721;28;20036;-71
2022/12/13 02:01:21;;;;;;;2.22;1.65;;;19.00;52.90;;;;;;6244269;28;20037;-71
2022/12/13 02:04:30;;;;;;;1.88;1.48;;;19.00;52.90;;;;;;6244164;28;20100;-71
2022/12/13 02:07:33;;;;;;;1.60;1.30;;;19.00;52.90;;;;;;6244518;28;20018;-71
2022/12/13 02:10:34;;;;;;;1.95;1.45;;;19.00;52.90;;;;;;6243325;28;20110;-71
2022/12/13 02:13:35;;;;;;;1.90;1.45;;;19.00;52.90;;;;;;6244256;28;20026;-71
2022/12/13 02:17:06;;;;;;;3.15;1.60;;;19.00;53.00;;;;;;6244395;28;20021;-71
2022/12/13 02:20:09;;;;;;;2.00;1.60;;;19.00;52.90;;;;;;6242978;28;20105;-71
2022/12/13 02:23:32;;;;;;;1.55;1.30;;;19.00;52.90;;;;;;6242818;28;20025;-70
2022/12/13 02:26:38;;;;;;;1.98;1.45;;;19.00;53.00;;;;;;6243853;28;20487;-70
2022/12/13 02:30:00;;;;;;;1.70;1.30;;;19.00;52.90;;;;;;6243921;28;20022;-71
2022/12/13 02:33:19;;;;;;;2.22;1.55;;;19.00;52.90;;;;;;6244175;28;20100;-71
2022/12/13 02:36:31;;;;;;;2.08;1.25;;;19.00;52.90;;;;;;6242523;28;20021;-71
2022/12/13 02:39:43;;;;;;;1.77;1.50;;;19.00;52.90;;;;;;6242145;28;20487;-71
2022/12/13 02:43:10;;;;;;;2.15;1.38;;;19.00;52.90;;;;;;6242497;28;20025;-71
2022/12/13 02:46:12;;;;;;;2.08;1.48;;;19.00;52.90;;;;;;6243680;28;20036;-71
2022/12/13 02:49:15;;;;;;;1.33;1.20;;;19.00;52.90;;;;;;6242236;28;20521;-71
2022/12/13 02:52:19;;;;;;;2.13;1.58;;;19.00;52.90;;;;;;6243316;28;20030;-70
2022/12/13 02:55:20;;;;;;;1.90;1.30;;;19.00;52.90;;;;;;6243162;28;20046;-71
2022/12/13 02:58:31;;;;;;;1.85;1.33;;;19.00;52.90;;;;;;6242490;28;20056;-71
2022/12/13 03:01:46;;;;;;;1.90;1.30;;;19.00;52.90;;;;;;6242710;28;20025;-70
2022/12/13 03:09:27;;;;;;;1.48;1.20;;;19.00;52.90;;;;;;6227628;28;20083;-71
2022/12/13 03:15:59;;;;;;;2.17;1.40;;;19.00;52.90;;;;;;6223968;28;20046;-71
2022/12/13 03:19:02;;;;;;;1.73;1.27;;;19.00;52.90;;;;;;6224054;28;20021;-71
2022/12/13 03:22:05;;;;;;;1.88;1.40;;;19.00;52.90;;;;;;6223640;28;20030;-71
2022/12/13 03:25:06;;;;;;;1.55;1.38;;;19.00;53.00;;;;;;6222530;28;20056;-71
2022/12/13 03:28:07;;;;;;;1.67;1.30;;;19.00;52.90;;;;;;6223717;28;20446;-70
2022/12/13 03:31:09;;;;;;;1.92;1.30;;;19.00;52.90;;;;;;6239661;28;20025;-71
2022/12/13 03:34:10;;;;;;;1.70;1.40;;;19.00;52.90;;;;;;6248144;28;20100;-71
2022/12/13 03:37:11;;;;;;;2.25;1.35;;;19.00;53.00;;;;;;6247835;28;20033;-70
2022/12/13 03:40:12;;;;;;;2.22;1.23;;;19.00;52.90;;;;;;6247858;28;20021;-71
2022/12/13 03:43:13;;;;;;;2.65;1.30;;;19.00;52.90;;;;;;6247679;28;20033;-70
2022/12/13 03:46:14;;;;;;;1.80;1.42;;;18.90;52.90;;;;;;6247639;28;20060;-70
2022/12/13 03:49:15;;;;;;;1.45;1.20;;;18.90;52.90;;;;;;6247597;28;20018;-70
2022/12/13 03:52:15;;;;;;;2.05;1.30;;;19.00;53.00;;;;;;6247567;28;20033;-70
2022/12/13 03:55:16;;;;;;;1.83;1.25;;;19.00;52.90;;;;;;6247279;28;20075;-71
2022/12/13 03:58:18;;;;;;;1.30;1.10;;;19.00;52.90;;;;;;6247582;28;20399;-71
2022/12/13 04:01:19;;;;;;;1.80;1.38;;;19.00;52.90;;;;;;6245823;28;20064;-71
2022/12/13 04:04:19;;;;;;;1.42;1.15;;;19.00;52.90;;;;;;6247542;28;20021;-71
2022/12/13 04:07:20;;;;;;;1.20;1.10;;;19.00;52.90;;;;;;6247474;28;20022;-71
2022/12/13 04:10:21;;;;;;;1.70;1.25;;;18.90;52.90;;;;;;6247396;28;20034;-71
2022/12/13 04:13:34;;;;;;;1.77;1.35;;;19.00;52.90;;;;;;6245818;28;20036;-71
2022/12/13 04:16:34;;;;;;;1.85;1.20;;;18.90;52.90;;;;;;6245719;28;20037;-71
2022/12/13 04:19:35;;;;;;;1.85;1.45;;;19.00;52.90;;;;;;6247134;28;20081;-71
2022/12/13 04:22:36;;;;;;;2.20;1.40;;;19.00;52.90;;;;;;6247016;28;20052;-70
2022/12/13 04:25:38;;;;;;;1.90;1.58;;;18.90;52.90;;;;;;6245380;28;20041;-68
2022/12/13 04:28:38;;;;;;;1.67;1.25;;;18.90;52.90;;;;;;6245639;28;20017;-68
2022/12/13 04:31:39;;;;;;;2.03;1.30;;;19.00;52.90;;;;;;6246856;28;20022;-68
2022/12/13 04:34:39;;;;;;;1.25;1.10;;;19.00;52.90;;;;;;6246373;28;20486;-68
2022/12/13 04:37:40;;;;;;;2.67;1.33;;;18.90;52.90;;;;;;6246799;28;20398;-67
2022/12/13 04:40:41;;;;;;;1.73;1.20;;;18.90;52.90;;;;;;6246404;28;20037;-68
2022/12/13 04:43:42;;;;;;;1.40;1.20;;;18.90;52.90;;;;;;6245852;28;20044;-68
2022/12/13 04:46:43;;;;;;;1.38;1.00;;;18.90;52.80;;;;;;6245988;28;20570;-68
2022/12/13 04:49:43;;;;;;;1.80;1.40;;;19.00;52.90;;;;;;6244885;28;20021;-68
2022/12/13 04:52:44;;;;;;;1.73;1.45;;;19.00;52.90;;;;;;6245862;28;20052;-67
2022/12/13 04:55:45;;;;;;;2.15;1.45;;;18.90;52.90;;;;;;6260920;28;20399;-68
2022/12/13 04:58:45;;;;;;;1.25;1.13;;;19.00;52.90;;;;;;6244707;28;20079;-67
2022/12/13 05:01:46;;;;;;;1.55;1.27;;;18.90;52.90;;;;;;6245496;28;20034;-68
2022/12/13 05:04:47;;;;;;;2.35;1.40;;;18.90;52.90;;;;;;6245387;28;20029;-68
2022/12/13 05:07:47;;;;;;;1.17;1.08;;;19.00;52.90;;;;;;6245457;28;20073;-68
2022/12/13 05:10:48;;;;;;;1.48;1.15;;;18.90;52.80;;;;;;6245608;28;20526;-68
2022/12/13 05:13:49;;;;;;;1.10;1.00;;;19.00;52.90;;;;;;6243866;28;20030;-68
2022/12/13 05:16:50;;;;;;;1.95;1.35;;;19.00;52.90;;;;;;6243881;28;20437;-68
2022/12/13 05:19:51;;;;;;;1.70;1.40;;;18.90;52.90;;;;;;6243987;28;20033;-68
2022/12/13 05:22:53;;;;;;;1.55;1.27;;;18.90;52.90;;;;;;6245095;28;20071;-68
2022/12/13 05:25:54;;;;;;;1.83;1.10;;;18.90;52.90;;;;;;6245294;28;20524;-68
2022/12/13 05:28:55;;;;;;;1.90;1.30;;;18.90;52.90;;;;;;6245312;28;20030;-68
2022/12/13 05:31:56;;;;;;;1.40;1.02;;;18.90;52.90;;;;;;6245267;28;20118;-68
2022/12/13 05:34:57;;;;;;;1.67;1.15;;;18.90;52.90;;;;;;6244903;28;20021;-68
2022/12/13 05:37:58;;;;;;;1.52;1.10;;;19.00;52.90;;;;;;6242597;28;20768;-68
2022/12/13 05:40:58;;;;;;;1.75;1.20;;;18.90;52.90;;;;;;6243680;28;20550;-68
2022/12/13 05:43:59;;;;;;;1.27;1.00;;;18.90;52.90;;;;;;6244978;28;20029;-67
2022/12/13 05:47:00;;;;;;;1.35;1.10;;;18.90;52.90;;;;;;6244424;28;20026;-68
2022/12/13 05:50:01;;;;;;;1.45;1.17;;;18.90;52.90;;;;;;6244802;28;20020;-68
2022/12/13 05:53:02;;;;;;;1.15;1.05;;;18.90;52.80;;;;;;6244487;28;20025;-68
2022/12/13 05:56:03;;;;;;;1.35;1.25;;;18.90;52.90;;;;;;6244787;28;20123;-68
2022/12/13 05:59:04;;;;;;;1.65;1.35;;;18.90;52.90;;;;;;6244473;28;20380;-68
2022/12/13 06:02:05;;;;;;;1.48;1.13;;;18.90;52.90;;;;;;6237162;28;20386;-68
2022/12/13 06:05:06;;;;;;;2.33;1.20;;;19.00;52.90;;;;;;6242825;28;20029;-68
2022/12/13 06:08:07;;;;;;;1.50;1.23;;;19.00;52.90;;;;;;6244410;28;20501;-67
2022/12/13 06:11:07;;;;;;;1.58;1.23;;;19.00;52.90;;;;;;6242515;28;20021;-68
2022/12/13 06:14:08;;;;;;;1.08;0.90;;;18.90;52.80;;;;;;6242808;28;20049;-68
2022/12/13 06:17:09;;;;;;;1.70;1.33;;;18.90;52.90;;;;;;6244141;28;20029;-68
2022/12/13 06:20:10;;;;;;;1.90;1.38;;;19.00;52.90;;;;;;6244458;28;20773;-68
2022/12/13 06:23:11;;;;;;;1.35;1.02;;;19.00;52.90;;;;;;6243467;28;20024;-68
2022/12/13 06:26:12;;;;;;;0.82;0.77;;;18.90;52.90;;;;;;6244090;28;20022;-68
2022/12/13 06:29:14;;;;;;;2.55;1.02;;;19.00;52.90;;;;;;6243358;28;20025;-68
2022/12/13 06:32:15;;;;;;;1.80;1.40;;;19.00;52.90;;;;;;6244102;28;20033;-68
2022/12/13 06:35:16;;;;;;;1.38;1.20;;;19.00;52.90;;;;;;6243422;28;20625;-68
2022/12/13 06:38:17;;;;;;;1.33;1.10;;;19.00;52.90;;;;;;6242480;28;20030;-68
2022/12/13 06:41:17;;;;;;;1.95;1.27;;;19.00;52.90;;;;;;6242382;28;20052;-68
2022/12/13 06:44:18;;;;;;;2.00;1.30;;;19.00;52.90;;;;;;6243584;28;20498;-68
2022/12/13 06:47:18;;;;;;;1.60;1.17;;;18.90;52.80;;;;;;6242302;28;20056;-68
2022/12/13 06:50:19;;;;;;;1.40;1.00;;;19.00;52.90;;;;;;6243232;28;20389;-68
2022/12/13 06:53:20;;;;;;;1.33;1.10;;;19.00;52.90;;;;;;6243485;28;20018;-68
2022/12/13 06:56:21;;;;;;;1.25;1.00;;;19.00;52.90;;;;;;6243539;28;20103;-68
2022/12/13 06:59:22;;;;;;;1.30;1.10;;;18.90;52.90;;;;;;6242995;28;20064;-67
2022/12/13 07:02:23;;;;;;;1.77;1.13;;;18.90;52.90;;;;;;6236633;28;20067;-67
2022/12/13 07:05:24;;;;;;;1.48;1.17;;;18.90;52.90;;;;;;6233240;28;20025;-67
2022/12/13 07:08:25;;;;;;;2.42;1.02;;;19.00;52.90;;;;;;6252483;28;20022;-68
2022/12/13 07:11:28;;;;;;;1.25;1.02;;;19.00;52.80;;;;;;6244630;28;20030;-68
2022/12/13 07:14:29;;;;;;;1.95;1.10;;;19.00;52.90;;;;;;6252809;28;20022;-69
2022/12/13 07:17:30;;;;;;;2.97;1.33;;;19.00;52.90;;;;;;6244329;28;20033;-67
2022/12/13 07:20:30;;;;;;;4.25;1.33;;;19.00;52.90;;;;;;6244797;28;20423;-66
2022/12/13 07:23:31;;;;;;;4.32;1.13;;;19.00;53.60;;;;;;6252438;28;20479;-69
2022/12/13 07:26:32;;;;;;;4.93;1.33;;;19.00;52.90;;;;;;6244343;28;20067;-66
2022/12/13 07:29:32;;;;;;;1.70;1.10;;;19.00;52.90;;;;;;6244454;28;20115;-67
2022/12/13 07:32:33;;;;;;;1.75;1.23;;;19.00;52.90;;;;;;6244425;28;20084;-67
2022/12/13 07:35:34;;;;;;;2.85;1.40;;;19.00;52.90;;;;;;6243231;28;20456;-67
2022/12/13 07:38:36;;;;;;;1.52;1.30;;;19.00;52.90;;;;;;6244545;28;20030;-67
2022/12/13 07:41:36;;;;;;;3.15;1.67;;;19.00;53.30;;;;;;6243016;28;20026;-67
2022/12/13 07:44:37;;;;;;;3.83;1.55;;;19.00;52.90;;;;;;6243796;28;20068;-67
2022/12/13 07:47:38;;;;;;;2.20;1.70;;;19.00;52.90;;;;;;6244368;28;20079;-67
2022/12/13 07:50:38;;;;;;;2.40;1.80;;;19.00;53.00;;;;;;6243244;28;20117;-66
2022/12/13 07:53:40;;;;;;;3.00;1.50;;;19.00;53.00;;;;;;6243844;28;20478;-67
2022/12/13 07:56:41;;;;;;;2.45;1.60;;;19.00;53.00;;;;;;6233427;28;20050;-67
2022/12/13 07:59:41;;;;;;;2.20;1.67;;;19.00;52.90;;;;;;6236774;28;20036;-68
2022/12/13 08:02:42;;;;;;;3.38;1.88;;;19.00;53.00;;;;;;6248262;28;20057;-67
2022/12/13 08:05:43;;;;;;;2.72;1.88;;;19.00;53.00;;;;;;6248650;28;20111;-67
2022/12/13 08:08:43;;;;;;;3.38;1.90;;;19.00;53.00;;;;;;6247354;28;20176;-67
2022/12/13 08:11:44;;;;;;;2.80;1.83;;;19.00;53.00;;;;;;6232997;28;20034;-67
2022/12/13 08:14:45;;;;;;;2.03;1.60;;;19.00;53.00;;;;;;6253850;28;20414;-67
2022/12/13 08:17:46;;;;;;;5.47;2.00;;;19.00;53.00;;;;;;6273249;28;20761;-67
2022/12/13 08:20:47;;;;;;;2.65;1.85;;;19.00;53.00;;;;;;6248153;28;20042;-67
2022/12/13 08:23:48;;;;;;;2.17;1.77;;;19.00;53.00;;;;;;6247501;28;20024;-69
2022/12/13 08:26:48;;;;;;;2.45;1.80;;;19.00;53.00;;;;;;6246498;28;20049;-67
2022/12/13 08:29:49;;;;;;;2.97;2.10;;;19.00;53.10;;;;;;6248706;28;20025;-67
2022/12/13 08:32:50;;;;;;;3.97;2.17;;;19.00;53.00;;;;;;6248382;28;20090;-67
2022/12/13 08:35:50;;;;;;;2.65;1.75;;;19.00;53.10;;;;;;6248242;28;20544;-67
2022/12/13 08:38:55;;;;;;;4.03;2.38;;;19.00;53.00;;;;;;6248235;28;20048;-67
2022/12/13 08:41:55;;;;;;;2.77;2.07;;;19.00;53.10;;;;;;6248281;28;20371;-67
2022/12/13 08:44:56;;;;;;;2.88;1.98;;;19.00;53.00;;;;;;6248188;28;20052;-67
2022/12/13 08:47:58;;;;;;;2.53;2.10;;;19.00;53.00;;;;;;6248296;28;20597;-67
2022/12/13 08:51:05;;;;;;;2.72;2.00;;;19.00;53.00;;;;;;6248071;28;20018;-67
2022/12/13 08:54:06;;;;;;;3.42;2.10;;;19.00;53.00;;;;;;6247769;28;20083;-67
2022/12/13 08:57:06;;;;;;;4.30;2.40;;;18.90;52.90;;;;;;6248190;28;20471;-67
2022/12/13 09:00:10;;;;;;;3.75;1.70;;;19.00;52.90;;;;;;6247885;28;20716;-67
2022/12/13 09:03:11;;;;;;;3.15;2.05;;;18.90;52.90;;;;;;6247800;28;20052;-67
2022/12/13 09:06:15;;;;;;;2.50;1.90;;;18.90;52.90;;;;;;6247314;28;20033;-67
2022/12/13 09:09:15;;;;;;;4.20;2.10;;;18.90;52.90;;;;;;6247859;28;20029;-67
2022/12/13 09:12:16;;;;;;;3.30;2.17;;;18.90;52.90;;;;;;6247034;28;20033;-67
2022/12/13 09:15:17;;;;;;;4.13;2.22;;;18.90;52.90;;;;;;6247633;28;20438;-67
2022/12/13 09:18:18;;;;;;;3.70;2.17;;;18.90;52.90;;;;;;6247408;28;20030;-67
2022/12/13 09:21:19;;;;;;;2.95;1.98;;;18.90;52.80;;;;;;6246033;28;20029;-67
2022/12/13 09:24:19;;;;;;;2.90;1.70;;;18.90;52.80;;;;;;6245759;28;20044;-67
2022/12/13 09:27:20;;;;;;;2.42;1.88;;;18.90;52.90;;;;;;6247379;28;20036;-66
2022/12/13 09:30:21;;;;;;;2.88;2.00;;;18.90;52.90;;;;;;6246941;28;20057;-67
2022/12/13 09:33:22;;;;;;;2.97;2.20;;;18.90;52.80;;;;;;6246999;28;20383;-67
2022/12/13 09:36:22;;;;;;;4.05;1.85;;;18.90;52.80;;;;;;6246863;28;20101;-67
2022/12/13 09:39:23;;;;;;;2.35;1.80;;;18.90;52.80;;;;;;6245800;28;20030;-67
2022/12/13 09:42:29;;;;;;;3.38;2.13;;;18.90;52.80;;;;;;6247456;28;20056;-70
2022/12/13 09:45:30;;;;;;;2.58;1.90;;;18.90;53.50;;;;;;6247397;28;20025;-70
2022/12/13 09:48:31;;;;;;;2.20;1.83;;;18.90;52.80;;;;;;6247541;28;20017;-69
2022/12/13 09:51:32;;;;;;;3.15;1.80;;;18.90;52.80;;;;;;6247713;28;20053;-70
2022/12/13 09:54:33;;;;;;;3.40;2.00;;;19.00;52.90;;;;;;6247034;28;20506;-72
2022/12/13 09:57:34;;;;;;;2.05;1.65;;;18.90;52.80;;;;;;6246130;28;20022;-72
2022/12/13 10:00:35;;;;;;;2.83;2.03;;;18.90;52.80;;;;;;6246933;28;20449;-72
2022/12/13 10:03:45;;;;;;;2.17;1.83;;;18.90;52.70;;;;;;6262181;28;20076;-72
2022/12/13 10:06:50;;;;;;;2.58;1.83;;;18.90;52.70;;;;;;6246846;28;20025;-72
2022/12/13 10:10:00;;;;;;;3.17;1.90;;;19.00;52.80;;;;;;6246616;28;20108;-69
2022/12/13 10:13:20;;;;;;;4.00;1.90;;;18.90;52.70;;;;;;6239013;28;20037;-70
2022/12/13 10:16:29;;;;;;;2.50;1.83;;;18.90;52.70;;;;;;6249728;28;20819;-70
2022/12/13 10:19:40;;;;;;;2.97;1.80;;;19.00;52.90;;;;;;6246232;28;20028;-72
2022/12/13 10:22:40;;;;;;;3.53;1.95;;;18.90;52.70;;;;;;6244530;28;20033;-69
2022/12/13 10:25:55;;;;;;;2.53;1.80;;;19.00;52.80;;;;;;6245732;28;20036;-69
2022/12/13 10:29:05;;;;;;;2.20;1.85;;;18.90;52.70;;;;;;6221260;28;20488;-70
2022/12/13 10:32:12;;;;;;;2.17;1.80;;;18.90;52.70;;;;;;6231099;28;20021;-70
2022/12/13 10:35:31;;;;;;;3.22;2.00;;;19.00;52.80;;;;;;6245456;28;20036;-69
2022/12/13 10:38:39;;;;;;;2.47;1.90;;;19.00;53.50;;;;;;6244386;28;20052;-69
2022/12/13 10:41:40;;;;;;;2.25;1.70;;;18.90;52.70;;;;;;6245813;28;20025;-71
2022/12/13 10:44:41;;;;;;;2.85;1.70;;;19.00;52.80;;;;;;6245332;28;20029;-71
2022/12/13 10:47:44;;;;;;;2.22;1.73;;;18.90;52.70;;;;;;6258432;28;20027;-70
2022/12/13 10:51:11;;;;;;;2.53;1.88;;;19.00;52.90;;;;;;6270358;28;20409;-70
2022/12/13 10:54:42;;;;;;;3.08;1.73;;;19.00;52.80;;;;;;6219418;28;20479;-70
2022/12/13 10:57:51;;;;;;;2.72;2.10;;;18.90;52.80;;;;;;6223030;28;20049;-71
2022/12/13 11:00:51;;;;;;;3.83;1.85;;;19.00;52.90;;;;;;6245302;28;20557;-71
2022/12/13 11:03:58;;;;;;;4.35;2.05;;;19.00;52.80;;;;;;6245130;28;20026;-71
2022/12/13 11:07:22;;;;;;;9.00;2.30;;;19.00;52.80;;;;;;6244881;28;20036;-74
2022/12/13 11:10:28;;;;;;;2.78;1.80;;;19.00;52.80;;;;;;6245365;28;20022;-71
2022/12/13 11:13:43;;;;;;;4.10;2.08;;;19.00;52.80;;;;;;6260105;28;20028;-72
2022/12/13 11:16:48;;;;;;;;;;;19.00;52.80;;;;;;6266497;28;20372;-72
2022/12/13 11:19:53;;;;;;;4.03;2.15;;;19.00;52.80;;;;;;6237084;28;20297;-72
2022/12/13 11:23:23;;;;;;;7.43;2.03;;;19.00;52.80;;;;;;6231216;28;20026;-70
2022/12/13 11:26:24;;;;;;;4.97;2.13;;;19.00;52.80;;;;;;6243561;28;20372;-71
2022/12/13 11:29:58;;;;;;;3.10;1.98;;;19.00;52.80;;;;;;6243115;28;20386;-71
2022/12/13 11:33:35;;;;;;;3.72;2.00;;;19.00;52.80;;;;;;6246857;28;20475;-73
2022/12/13 11:37:16;;;;;;;6.03;2.20;;;19.00;52.90;;;;;;6249381;28;20038;-71
2022/12/13 11:40:31;;;;;;;5.88;2.45;;;19.00;52.90;;;;;;6226526;28;20517;-68
2022/12/13 11:43:32;;;;;;;4.72;2.35;;;19.00;52.90;;;;;;6226285;28;20026;-70
2022/12/13 11:46:43;;;;;;;5.45;2.20;;;19.00;52.90;;;;;;6226310;28;20025;-70
2022/12/13 11:49:46;;;;;;;4.00;2.20;;;19.00;52.90;;;;;;6248787;28;20025;-68
2022/12/13 11:52:53;;;;;;;3.80;2.35;;;19.00;52.90;;;;;;6265710;28;20021;-69
2022/12/13 11:55:57;;;;;;;3.63;2.30;;;19.00;52.90;;;;;;6250157;28;20124;-69
2022/12/13 11:59:02;;;;;;;4.50;2.58;;;19.00;52.90;;;;;;6248902;28;20029;-69
2022/12/13 12:02:19;;;;;;;5.07;2.28;;;19.00;52.90;;;;;;6249068;28;20383;-70
2022/12/13 12:05:32;;;;;;;4.75;2.60;;;19.00;52.90;;;;;;6224646;28;20107;-68
2022/12/13 12:08:47;;;;;;;4.68;2.45;;;19.00;52.90;;;;;;6247906;28;20021;-69
2022/12/13 12:12:01;;;;;;;7.90;3.70;;;19.00;52.90;;;;;;6275008;28;20021;-69
2022/12/13 12:15:04;;;;;;;5.22;3.00;;;19.00;52.90;;;;;;6252072;28;20607;-69
2022/12/13 12:18:13;;;;;;;6.85;3.40;;;19.00;52.90;;;;;;6256205;28;20037;-70
2022/12/13 12:21:28;;;;;;;5.90;3.20;;;19.00;52.90;;;;;;6274412;28;20068;-69
2022/12/13 12:24:40;;;;;;;;;;;19.00;52.90;;;;;;6275021;28;20099;-69
2022/12/13 12:27:55;;;;;;;6.68;3.55;;;19.00;52.90;;;;;;6273337;28;19986;-69
2022/12/13 12:31:22;;;;;;;7.68;3.40;;;19.00;52.90;;;;;;6274666;28;20392;-69
2022/12/13 12:34:46;;;;;;;8.52;4.00;;;19.00;52.90;;;;;;6260713;28;20030;-69
2022/12/13 12:38:11;;;;;;;7.32;3.63;;;19.00;52.90;;;;;;6249829;28;20018;-70
2022/12/13 12:41:27;;;;;;;9.32;4.25;;;19.00;52.90;;;;;;6249533;28;20024;-69
2022/12/13 12:44:46;;;;;;;8.00;4.07;;;19.00;52.90;;;;;;6251641;28;20029;-69
2022/12/13 12:48:15;;;;;;;7.55;4.32;;;19.00;52.90;;;;;;6248184;28;20096;-69
2022/12/13 12:51:24;;;;;;;7.35;3.90;;;19.00;52.90;;;;;;6247125;28;20228;-68
2022/12/13 12:54:25;;;;;;;10.10;4.13;;;19.00;52.90;;;;;;6248212;28;20025;-68
2022/12/13 12:57:33;;;;;;;9.00;4.35;;;19.00;53.70;;;;;;6248764;28;20115;-68
2022/12/13 13:01:00;;;;;;;9.27;4.25;;;19.00;53.00;;;;;;6248726;28;20163;-68
2022/12/13 13:04:04;;;;;;;8.55;4.30;;;19.00;53.00;;;;;;6248395;28;20094;-69
2022/12/13 13:07:16;;;;;;;6.90;3.47;;;18.90;52.90;;;;;;6247832;28;20026;-68
2022/12/13 13:10:17;;;;;;;8.23;4.47;;;19.00;52.90;;;;;;6247819;28;20279;-68
2022/12/13 13:13:41;;;;;;;7.32;3.90;;;18.90;52.90;;;;;;6245848;28;20421;-67
2022/12/13 13:16:42;;;;;;;8.43;4.15;;;18.90;52.90;;;;;;6254780;28;20120;-68
2022/12/13 13:19:47;;;;;;;10.10;4.47;;;18.90;52.90;;;;;;6247175;28;20087;-71
2022/12/13 13:22:50;;;;;;;11.90;3.97;;;18.90;52.90;;;;;;6247308;28;20482;-68
2022/12/13 13:25:54;;;;;;;6.85;3.78;;;18.90;52.90;;;;;;6246681;28;20034;-68
2022/12/13 13:29:21;;;;;;;7.22;4.05;;;18.90;52.90;;;;;;6262407;28;20079;-71
2022/12/13 13:32:28;;;;;;;7.93;4.28;;;18.90;52.90;;;;;;6246874;28;20028;-68
2022/12/13 13:35:32;;;;;;;7.72;4.07;;;18.90;52.90;;;;;;6246168;28;20026;-70
2022/12/13 13:38:50;;;;;;;6.82;3.78;;;18.90;52.90;;;;;;6245704;28;20367;-67
2022/12/13 13:42:13;;;;;;;7.07;3.47;;;18.90;52.90;;;;;;6245844;28;20034;-68
2022/12/13 13:45:19;;;;;;;7.05;3.30;;;18.90;52.90;;;;;;6248295;28;20033;-68
2022/12/13 13:48:23;;;;;;;8.63;4.35;;;18.90;52.90;;;;;;6248314;28;20085;-71
2022/12/13 13:51:56;;;;;;;8.18;3.75;;;18.90;52.90;;;;;;6245760;28;20475;-68
2022/12/13 13:55:28;;;;;;;7.82;3.88;;;18.90;53.50;;;;;;6245318;28;20038;-71
2022/12/13 13:59:06;;;;;;;5.53;3.20;;;18.90;52.80;;;;;;6246308;28;20017;-71
2022/12/13 14:02:58;;;;;;;7.63;3.92;;;18.90;52.80;;;;;;6245668;28;20030;-71
2022/12/13 14:06:34;;;;;;;5.97;3.55;;;18.90;52.80;;;;;;6245368;28;20033;-71
2022/12/13 14:10:02;;;;;;;7.25;3.58;;;18.90;52.80;;;;;;6245623;28;20021;-71
2022/12/13 14:13:40;;;;;;;5.53;3.25;;;18.90;52.90;;;;;;6246919;28;20022;-71
2022/12/13 14:17:05;;;;;;;6.10;3.08;;;18.90;52.90;;;;;;6246439;28;20033;-71
2022/12/13 14:20:29;;;;;;;6.97;3.58;;;18.90;52.90;;;;;;6246543;28;20568;-70
2022/12/13 14:23:33;;;;;;;4.97;3.13;;;18.90;52.90;;;;;;6245043;28;20041;-72
2022/12/13 14:26:46;;;;;;;4.25;2.45;;;18.90;52.80;;;;;;6246021;28;20029;-71
2022/12/13 14:29:48;;;;;;;5.32;3.10;;;18.90;52.80;;;;;;6246140;28;20017;-71
2022/12/13 14:32:51;;;;;;;6.05;3.28;;;18.90;52.80;;;;;;6246283;28;20014;-71
2022/12/13 14:35:56;;;;;;;6.10;3.53;;;18.90;52.80;;;;;;6261715;28;20132;-71
2022/12/13 14:39:06;;;;;;;5.45;3.15;;;18.90;52.80;;;;;;6246042;28;20545;-71
2022/12/13 14:42:25;;;;;;;5.53;3.00;;;18.90;52.80;;;;;;6246222;28;20100;-71
2022/12/13 14:45:30;;;;;;;4.88;2.75;;;18.90;52.80;;;;;;6245025;28;20033;-71
2022/12/13 14:48:52;;;;;;;5.95;3.20;;;18.90;52.80;;;;;;6245710;28;20426;-71
2022/12/13 14:52:04;;;;;;;5.85;2.70;;;18.90;52.80;;;;;;6245940;28;20014;-71
2022/12/13 14:55:06;;;;;;;4.75;2.97;;;18.90;52.70;;;;;;6244974;28;20063;-71
2022/12/13 14:58:19;;;;;;;4.65;2.95;;;18.90;52.70;;;;;;6244520;28;20071;-71
2022/12/13 15:01:34;;;;;;;4.85;3.00;;;18.90;52.70;;;;;;6245814;28;20029;-71
2022/12/13 15:04:36;;;;;;;5.78;3.17;;;18.90;52.70;;;;;;6245851;28;20075;-71
2022/12/13 15:07:43;;;;;;;3.75;2.55;;;18.90;52.70;;;;;;6242362;28;20552;-71
2022/12/13 15:10:44;;;;;;;5.05;2.72;;;18.90;52.70;;;;;;6251828;28;20021;-70
2022/12/13 15:13:52;;;;;;;4.50;2.72;;;18.90;52.70;;;;;;6252663;28;20056;-70
2022/12/13 15:16:55;;;;;;;5.45;3.10;;;18.90;52.70;;;;;;6254104;28;20561;-70
2022/12/13 15:19:56;;;;;;;6.65;2.75;;;18.90;52.60;;;;;;6253982;28;20494;-70
2022/12/13 15:23:13;;;;;;;4.47;2.63;;;19.00;52.70;;;;;;6252259;28;20434;-70
2022/12/13 15:26:22;;;;;;;5.68;3.08;;;18.90;52.60;;;;;;6252771;28;20030;-70
2022/12/13 15:29:26;;;;;;;5.43;2.88;;;18.90;52.60;;;;;;6253814;28;20033;-69
2022/12/13 15:32:27;;;;;;;4.07;2.30;;;18.90;52.60;;;;;;6252757;28;20552;-70
2022/12/13 15:35:27;;;;;;;3.95;2.45;;;18.90;52.60;;;;;;6252456;28;20026;-71
2022/12/13 15:38:28;;;;;;;4.57;2.20;;;18.90;52.60;;;;;;6253642;28;20083;-70
2022/12/13 15:41:40;;;;;;;3.03;2.30;;;18.90;52.60;;;;;;6253815;28;20052;-70
2022/12/13 15:44:46;;;;;;;3.15;2.15;;;18.90;52.60;;;;;;6253361;28;20025;-71
2022/12/13 15:47:48;;;;;;;4.97;2.47;;;18.90;52.60;;;;;;6253779;28;20087;-71
2022/12/13 15:50:49;;;;;;;3.78;2.20;;;18.90;52.60;;;;;;6253491;28;20025;-69
2022/12/13 15:54:09;;;;;;;3.63;2.25;;;18.90;52.60;;;;;;6253623;28;20036;-70
2022/12/13 15:57:14;;;;;;;3.58;2.30;;;18.90;52.60;;;;;;6252430;28;20037;-70
2022/12/13 16:00:24;;;;;;;4.63;2.42;;;18.90;52.60;;;;;;6253262;28;20057;-69
2022/12/13 16:03:25;;;;;;;3.67;2.22;;;18.90;52.60;;;;;;6253180;28;20104;-70
2022/12/13 16:06:26;;;;;;;4.85;2.40;;;18.90;52.60;;;;;;6253200;28;20068;-70
2022/12/13 16:09:32;;;;;;;3.38;2.35;;;18.90;52.60;;;;;;6252053;28;20071;-70
2022/12/13 16:12:45;;;;;;;2.50;1.83;;;18.90;52.60;;;;;;6252019;28;20018;-71
2022/12/13 16:15:48;;;;;;;3.50;2.00;;;18.90;53.30;;;;;;6252041;28;20482;-70
2022/12/13 16:18:56;;;;;;;4.03;2.35;;;18.90;52.60;;;;;;6253289;28;20028;-70